Time;durP1;ratioP1;P1;durP2;ratioP2;P2;SDS_P1;SDS_P2;PMS_P1;PMS_P2;Temp;Humidity;BMP_temperature;BMP_pressure;BME280_temperature;BME280_humidity;BME280_pressure;Samples;Min_cycle;Max_cycle;Signal;HPM_P1;HPM_P2
2022/02/09 00:09:24;;;;;;;9.20;7.82;;;9.00;84.50;;;;;;4995445;28;20073;-84
2022/02/09 00:14:54;;;;;;;9.45;7.38;;;9.10;84.50;;;;;;4995112;28;20058;-85
2022/02/09 00:31:01;;;;;;;8.25;7.32;;;9.00;84.40;;;;;;4994567;28;20046;-84
2022/02/09 00:33:58;;;;;;;11.65;7.85;;;9.00;84.40;;;;;;4994755;28;20049;-84
2022/02/09 00:36:53;;;;;;;9.73;7.57;;;9.10;84.40;;;;;;4994530;28;20057;-85
2022/02/09 01:55:33;;;;;;;10.05;6.70;;;8.90;84.20;;;;;;4898418;29;20527;-85
2022/02/09 01:58:00;;;;;;;9.27;7.43;;;8.90;84.20;;;;;;4898325;29;20048;-85
2022/02/09 02:00:28;;;;;;;13.23;7.28;;;8.90;84.20;;;;;;4882188;29;20052;-85
2022/02/09 02:02:55;;;;;;;8.10;6.45;;;8.90;84.20;;;;;;4896584;29;20060;-85
2022/02/09 02:05:22;;;;;;;9.23;6.53;;;8.90;84.20;;;;;;4896194;29;20458;-84
2022/02/09 02:07:54;;;;;;;10.48;6.90;;;8.90;84.20;;;;;;4899203;29;20048;-85
2022/02/09 02:10:30;;;;;;;8.80;6.70;;;8.90;84.20;;;;;;4898427;29;20063;-85
2022/02/09 02:13:20;;;;;;;10.82;7.32;;;8.90;84.20;;;;;;4898080;29;20082;-86
2022/02/09 02:18:29;;;;;;;11.68;7.88;;;8.80;84.10;;;;;;4898716;29;20055;-85
2022/02/09 02:21:11;;;;;;;9.80;7.82;;;8.90;84.10;;;;;;4881315;29;20053;-85
2022/02/09 02:23:59;;;;;;;12.43;7.65;;;8.90;84.10;;;;;;4894311;29;20057;-85
2022/02/09 02:26:52;;;;;;;10.10;7.68;;;8.90;84.10;;;;;;4897948;29;20044;-85
2022/02/09 02:59:22;;;;;;;12.68;9.43;;;8.80;84.00;;;;;;4940233;29;20079;-86
2022/02/09 03:08:11;;;;;;;12.50;9.77;;;8.80;83.90;;;;;;4942918;29;20062;-85
2022/02/09 03:12:47;;;;;;;12.90;10.07;;;8.80;83.80;;;;;;4996370;28;20445;-85
2022/02/09 03:15:35;;;;;;;13.65;9.50;;;8.80;83.70;;;;;;4995095;28;20057;-85
2022/02/09 03:21:03;;;;;;;10.98;8.93;;;8.80;83.70;;;;;;4980866;28;20054;-85
2022/02/09 03:42:30;;;;;;;9.73;7.57;;;8.80;83.60;;;;;;4954754;28;20051;-85
2022/02/09 03:50:33;;;;;;;13.10;7.75;;;8.80;83.60;;;;;;4954099;28;20055;-86
2022/02/09 03:58:35;;;;;;;8.98;6.80;;;8.80;83.50;;;;;;4916636;29;20059;-85
2022/02/09 04:01:03;;;;;;;10.60;7.85;;;8.80;83.40;;;;;;4916410;29;20059;-85
2022/02/09 04:03:30;;;;;;;14.48;7.20;;;8.80;83.30;;;;;;4916425;29;20500;-86
2022/02/09 04:05:57;;;;;;;12.75;7.15;;;8.70;83.20;;;;;;4900719;29;20052;-85
2022/02/09 04:08:29;;;;;;;12.55;7.85;;;8.70;83.10;;;;;;4927591;29;20056;-86
2022/02/09 04:11:24;;;;;;;10.07;7.28;;;8.70;83.00;;;;;;4934834;29;20179;-85
2022/02/09 04:13:55;;;;;;;9.50;6.95;;;8.70;83.00;;;;;;4936288;29;20059;-85
2022/02/09 04:17:14;;;;;;;10.15;7.60;;;8.70;82.90;;;;;;4935359;29;20062;-85
2022/02/09 04:19:37;;;;;;;10.48;7.30;;;8.70;82.90;;;;;;4928608;29;20055;-85
2022/02/09 04:22:41;;;;;;;10.32;7.47;;;8.70;82.80;;;;;;4934795;29;20051;-85
2022/02/09 04:42:05;;;;;;;12.10;9.13;;;8.60;83.10;;;;;;4993325;28;20050;-85
2022/02/09 04:47:18;;;;;;;14.90;9.95;;;8.60;83.10;;;;;;4992147;28;20591;-85
2022/02/09 04:52:59;;;;;;;12.50;9.82;;;8.50;83.10;;;;;;4971641;28;20531;-86
2022/02/09 04:58:00;;;;;;;15.02;10.32;;;8.60;83.10;;;;;;4964672;28;20046;-85
2022/02/09 05:20:10;;;;;;;19.48;11.15;;;8.50;83.10;;;;;;4932671;28;20048;-84
2022/02/09 05:30:11;;;;;;;16.80;11.00;;;8.40;83.10;;;;;;4914875;29;20060;-84
2022/02/09 05:32:38;;;;;;;17.80;10.32;;;8.40;83.10;;;;;;4914997;29;20468;-85
2022/02/09 05:35:07;;;;;;;16.90;12.02;;;8.40;83.10;;;;;;4913880;29;20052;-85
2022/02/09 05:37:34;;;;;;;18.23;11.30;;;8.40;83.10;;;;;;4916477;29;20509;-85
2022/02/09 05:40:02;;;;;;;17.65;10.95;;;8.40;83.20;;;;;;4914767;29;20048;-84
2022/02/09 05:42:29;;;;;;;17.05;10.98;;;8.40;83.20;;;;;;4914819;29;20048;-84
2022/02/09 05:44:56;;;;;;;19.65;11.55;;;8.40;83.20;;;;;;4933938;28;20424;-84
2022/02/09 05:55:44;;;;;;;16.67;11.35;;;8.40;83.30;;;;;;4972076;28;20055;-85
2022/02/09 05:58:21;;;;;;;15.43;11.68;;;8.40;83.30;;;;;;4972317;28;20055;-85
2022/02/09 06:00:53;;;;;;;16.95;11.73;;;8.30;83.30;;;;;;4974845;28;20049;-85
2022/02/09 06:03:20;;;;;;;15.52;12.15;;;8.40;83.40;;;;;;4997226;28;20122;-85
2022/02/09 06:05:47;;;;;;;19.15;12.10;;;8.30;83.40;;;;;;4997748;28;20046;-84
2022/02/09 06:08:15;;;;;;;18.60;12.13;;;8.30;83.40;;;;;;4996756;28;20057;-85
2022/02/09 06:10:50;;;;;;;18.25;12.60;;;8.30;83.50;;;;;;4996853;28;20057;-85
2022/02/09 06:13:41;;;;;;;20.80;11.38;;;8.30;83.50;;;;;;4997445;28;20054;-85
2022/02/09 06:21:38;;;;;;;19.15;12.10;;;8.30;83.60;;;;;;4997325;28;20049;-84
2022/02/09 06:24:05;;;;;;;23.15;12.65;;;8.30;83.60;;;;;;4997442;28;20050;-84
2022/02/09 06:26:32;;;;;;;19.95;13.15;;;8.30;83.60;;;;;;4996112;28;20053;-85
2022/02/09 06:28:59;;;;;;;23.27;13.45;;;8.20;83.60;;;;;;4996529;28;20058;-84
2022/02/09 06:31:26;;;;;;;22.13;13.15;;;8.20;83.60;;;;;;4997160;28;20050;-84
2022/02/09 06:33:53;;;;;;;20.40;13.20;;;8.20;83.70;;;;;;4996832;28;20050;-85
2022/02/09 06:36:24;;;;;;;21.05;12.43;;;8.20;83.70;;;;;;4997154;28;20534;-84
2022/02/09 06:38:52;;;;;;;21.45;14.25;;;8.10;83.70;;;;;;4996126;28;20047;-84
2022/02/09 06:41:19;;;;;;;21.20;12.82;;;8.20;83.80;;;;;;4995796;28;20050;-84
2022/02/09 06:43:46;;;;;;;22.30;13.57;;;8.10;83.80;;;;;;4996321;28;20050;-85
2022/02/09 06:46:14;;;;;;;26.45;13.38;;;8.10;83.80;;;;;;4995759;28;20050;-85
2022/02/09 06:48:41;;;;;;;18.48;13.55;;;8.00;83.80;;;;;;4995286;28;20046;-86
2022/02/09 06:51:12;;;;;;;19.58;13.10;;;8.00;83.80;;;;;;4997044;28;20386;-86
2022/02/09 06:53:58;;;;;;;19.95;13.10;;;8.00;83.90;;;;;;4981766;28;20057;-85
2022/02/09 06:56:40;;;;;;;20.35;13.18;;;8.00;83.90;;;;;;4996756;28;20054;-86
2022/02/09 06:59:29;;;;;;;22.50;13.27;;;8.00;83.90;;;;;;4992318;28;20050;-85
2022/02/09 07:02:04;;;;;;;21.90;13.38;;;7.90;83.90;;;;;;4994137;28;20054;-85
2022/02/09 07:04:33;;;;;;;23.35;13.82;;;7.90;83.90;;;;;;4995418;28;20047;-85
2022/02/09 07:07:04;;;;;;;23.45;13.63;;;7.90;84.00;;;;;;4995133;28;20065;-86
2022/02/09 07:09:32;;;;;;;21.58;13.88;;;7.90;84.00;;;;;;4993948;28;20072;-86
2022/02/09 07:11:59;;;;;;;21.35;14.43;;;7.90;84.10;;;;;;4995023;28;20529;-87
2022/02/09 07:14:28;;;;;;;20.80;13.90;;;7.90;84.10;;;;;;4989391;28;20054;-86
2022/02/09 07:16:56;;;;;;;22.38;13.75;;;7.90;84.20;;;;;;4994755;28;20047;-85
2022/02/09 07:19:26;;;;;;;21.35;13.95;;;7.80;84.20;;;;;;4995609;28;20061;-85
2022/02/09 07:21:53;;;;;;;24.88;14.10;;;7.80;84.20;;;;;;4996153;28;20500;-86
2022/02/09 07:24:21;;;;;;;23.45;14.68;;;7.80;84.30;;;;;;4995903;28;20530;-85
2022/02/09 07:27:00;;;;;;;24.67;14.55;;;7.80;84.30;;;;;;4995420;28;20046;-86
2022/02/09 07:29:27;;;;;;;24.88;13.95;;;7.70;84.40;;;;;;4995800;28;20496;-86
2022/02/09 07:31:54;;;;;;;25.15;14.85;;;7.80;84.40;;;;;;4993481;28;20050;-86
2022/02/09 07:34:21;;;;;;;24.50;15.45;;;7.70;84.40;;;;;;4995332;28;20081;-85
2022/02/09 07:36:48;;;;;;;24.88;15.07;;;7.70;84.50;;;;;;4995547;28;20058;-85
2022/02/09 07:39:15;;;;;;;26.48;14.93;;;7.70;84.50;;;;;;4995746;28;20065;-85
2022/02/09 07:41:47;;;;;;;28.38;15.23;;;7.70;84.60;;;;;;4994389;28;20074;-85
2022/02/09 07:44:32;;;;;;;21.73;14.73;;;7.70;84.60;;;;;;4994726;28;20042;-85
2022/02/09 07:47:20;;;;;;;26.15;14.88;;;7.70;84.60;;;;;;4993106;28;20054;-85
2022/02/09 07:50:03;;;;;;;28.60;15.43;;;7.70;84.70;;;;;;4995104;28;20053;-85
2022/02/09 07:52:39;;;;;;;27.25;16.17;;;7.70;84.70;;;;;;4995223;28;20064;-85
2022/02/09 07:55:06;;;;;;;27.92;15.80;;;7.70;84.80;;;;;;4995317;28;20054;-85
2022/02/09 07:57:33;;;;;;;25.55;15.35;;;7.70;84.80;;;;;;4994946;28;20038;-85
2022/02/09 08:00:00;;;;;;;32.00;15.93;;;7.70;84.90;;;;;;4994908;28;20054;-85
2022/02/09 08:02:28;;;;;;;30.40;15.85;;;7.70;84.90;;;;;;4995211;28;20097;-85
2022/02/09 08:04:55;;;;;;;27.10;15.77;;;7.60;84.90;;;;;;4993791;28;20046;-85
2022/02/09 08:07:22;;;;;;;34.70;16.38;;;7.70;84.90;;;;;;4995043;28;20062;-85
2022/02/09 08:09:49;;;;;;;29.27;15.75;;;7.70;85.00;;;;;;4994006;28;20388;-85
2022/02/09 08:33:23;;;;;;;27.55;16.33;;;7.70;85.20;;;;;;4994446;28;20049;-86
2022/02/09 08:35:55;;;;;;;30.42;17.25;;;7.70;85.20;;;;;;4994604;28;20137;-86
2022/02/09 08:38:22;;;;;;;27.23;17.02;;;7.70;85.30;;;;;;4994515;28;20058;-86
2022/02/09 08:40:52;;;;;;;29.08;16.42;;;7.70;85.30;;;;;;4991727;28;20062;-87
2022/02/09 08:43:19;;;;;;;30.45;18.25;;;7.70;85.30;;;;;;4994112;28;20050;-86
2022/02/09 08:45:46;;;;;;;29.70;17.17;;;7.80;85.40;;;;;;4994311;28;20482;-86
2022/02/09 08:48:13;;;;;;;30.17;16.50;;;7.70;85.40;;;;;;4993944;28;20052;-85
2022/02/09 08:50:40;;;;;;;28.27;16.20;;;7.80;85.40;;;;;;4994134;28;20525;-86
2022/02/09 08:53:07;;;;;;;29.27;17.02;;;7.80;85.50;;;;;;4992414;28;20526;-85
2022/02/09 08:55:34;;;;;;;28.92;16.80;;;7.80;85.40;;;;;;4995029;28;20054;-86
2022/02/09 08:58:02;;;;;;;31.80;16.10;;;7.80;85.40;;;;;;4993822;28;20046;-86
2022/02/09 09:00:34;;;;;;;34.35;17.23;;;7.80;85.50;;;;;;4994054;28;20091;-85
2022/02/09 09:03:15;;;;;;;29.80;16.55;;;7.90;85.50;;;;;;4994400;28;20050;-86
2022/02/09 09:08:36;;;;;;;35.75;16.20;;;7.90;85.50;;;;;;4993541;28;20049;-85
2022/02/09 10:33:51;;;;;;;26.02;15.43;;;9.20;85.10;;;;;;4993314;28;20050;-83
2022/02/09 10:36:20;;;;;;;24.85;15.13;;;9.40;85.00;;;;;;4993237;28;20043;-84
2022/02/09 10:38:50;;;;;;;23.10;14.25;;;9.60;84.80;;;;;;4993291;28;20511;-85
2022/02/09 10:41:32;;;;;;;24.05;13.82;;;9.70;84.50;;;;;;4991599;28;20084;-85
2022/02/09 10:44:07;;;;;;;24.27;13.85;;;9.90;84.30;;;;;;4991764;28;20050;-86
2022/02/09 10:46:54;;;;;;;24.85;14.23;;;10.00;84.10;;;;;;4996094;28;20567;-85
2022/02/09 10:49:23;;;;;;;25.83;13.73;;;10.20;83.80;;;;;;4995702;28;20122;-85
2022/02/09 10:52:05;;;;;;;20.00;12.45;;;10.30;83.50;;;;;;4996824;28;20061;-84
2022/02/09 10:54:34;;;;;;;23.70;13.20;;;10.50;83.20;;;;;;4996430;28;20439;-84
2022/02/09 10:57:05;;;;;;;22.55;13.35;;;10.60;82.90;;;;;;4996688;28;20046;-85
2022/02/09 10:59:37;;;;;;;20.67;12.45;;;10.70;82.60;;;;;;4996861;28;20072;-84
2022/02/09 11:02:06;;;;;;;19.73;11.70;;;10.90;82.20;;;;;;4991658;28;20042;-85
2022/02/09 11:04:33;;;;;;;21.27;11.70;;;11.00;81.80;;;;;;4996631;28;20129;-85
2022/02/09 11:07:00;;;;;;;19.30;11.27;;;11.10;81.40;;;;;;4994224;28;20053;-84
2022/02/09 11:09:29;;;;;;;22.55;11.20;;;11.30;81.10;;;;;;4990922;28;20459;-84
2022/02/09 11:11:57;;;;;;;27.13;11.27;;;11.40;80.80;;;;;;4982574;28;20142;-85
2022/02/09 11:14:26;;;;;;;19.20;11.07;;;11.40;80.50;;;;;;4995985;28;20459;-86
2022/02/09 11:16:56;;;;;;;22.48;11.85;;;11.50;80.20;;;;;;4995164;28;20086;-84
2022/02/09 11:19:40;;;;;;;17.27;11.45;;;11.60;79.90;;;;;;4995631;28;20080;-84
2022/02/09 11:22:11;;;;;;;20.27;11.57;;;11.70;79.50;;;;;;4996029;28;20054;-84
2022/02/09 11:24:45;;;;;;;18.63;10.25;;;11.80;79.30;;;;;;4995408;28;20584;-84
2022/02/09 11:27:26;;;;;;;19.38;11.50;;;11.90;79.00;;;;;;4995743;28;20133;-84
2022/02/09 11:33:08;;;;;;;19.45;11.32;;;12.00;78.50;;;;;;4938419;29;20039;-84
2022/02/09 11:35:42;;;;;;;22.05;11.23;;;12.00;78.30;;;;;;4953265;29;20057;-83
2022/02/09 11:38:15;;;;;;;21.05;10.77;;;12.00;78.20;;;;;;4950106;29;20054;-83
2022/02/09 11:43:29;;;;;;;19.75;10.95;;;12.10;78.10;;;;;;4949095;29;20051;-82
2022/02/09 11:58:24;;;;;;;21.25;10.43;;;12.20;77.70;;;;;;4947694;29;20079;-83
2022/02/09 12:12:13;;;;;;;21.13;10.80;;;12.20;77.70;;;;;;4993826;28;20069;-85
2022/02/09 12:14:52;;;;;;;15.70;9.35;;;12.20;77.70;;;;;;4979272;28;20048;-85
2022/02/09 12:17:37;;;;;;;16.45;9.80;;;12.20;77.70;;;;;;4993898;28;20506;-84
2022/02/09 12:20:34;;;;;;;;;;;12.20;77.70;;;;;;4989469;28;20057;-81
2022/02/09 12:25:48;;;;;;;14.10;8.85;;;12.30;77.60;;;;;;4993371;28;20431;-84
2022/02/09 12:28:29;;;;;;;15.70;9.25;;;12.30;77.50;;;;;;4993919;28;20050;-84
2022/02/09 12:31:13;;;;;;;16.50;9.68;;;12.40;77.40;;;;;;4993839;28;20054;-83
2022/02/09 12:33:51;;;;;;;19.98;9.88;;;12.40;77.30;;;;;;4993438;28;20422;-83
2022/02/09 12:36:21;;;;;;;15.25;8.60;;;12.40;77.20;;;;;;4993257;28;20117;-84
2022/02/09 12:38:55;;;;;;;17.25;10.27;;;12.30;77.00;;;;;;4992648;28;20047;-83
2022/02/09 12:41:23;;;;;;;16.92;9.25;;;12.40;76.90;;;;;;4993401;28;20508;-84
2022/02/09 12:44:00;;;;;;;14.27;8.35;;;12.40;76.80;;;;;;4992777;28;20138;-84
2022/02/09 12:46:32;;;;;;;14.40;8.90;;;12.30;76.70;;;;;;4993660;28;20057;-84
2022/02/09 12:49:19;;;;;;;14.48;8.68;;;12.30;76.70;;;;;;4993024;28;20043;-84
2022/02/09 12:51:50;;;;;;;15.02;8.90;;;12.20;76.70;;;;;;4993225;28;20427;-83
2022/02/09 12:54:19;;;;;;;12.48;8.10;;;12.20;76.70;;;;;;4993741;28;20070;-84
2022/02/09 12:56:49;;;;;;;15.35;9.07;;;12.20;76.80;;;;;;4992516;28;20053;-84
2022/02/09 12:59:19;;;;;;;14.00;8.25;;;12.10;76.80;;;;;;4993106;28;20064;-84
2022/02/09 13:01:48;;;;;;;12.90;8.07;;;12.10;76.90;;;;;;4992994;28;20484;-84
2022/02/09 13:04:36;;;;;;;14.88;9.40;;;12.20;76.90;;;;;;4993178;28;20129;-84
2022/02/09 13:07:07;;;;;;;15.05;9.18;;;12.10;77.00;;;;;;4993570;28;20054;-84
2022/02/09 13:09:35;;;;;;;14.70;9.13;;;12.10;77.10;;;;;;4943908;28;1403246;-83
2022/02/09 13:12:03;;;;;;;16.55;10.77;;;12.20;77.10;;;;;;4994329;28;20046;-84
2022/02/09 13:14:38;;;;;;;16.73;9.25;;;12.20;77.20;;;;;;4994277;28;20050;-84
2022/02/09 13:17:24;;;;;;;13.90;8.95;;;12.10;77.30;;;;;;4989505;28;20058;-83
2022/02/09 13:20:26;;;;;;;17.90;9.18;;;12.20;77.40;;;;;;4991441;28;20057;-84
2022/02/09 13:23:19;;;;;;;18.30;10.13;;;12.20;77.50;;;;;;4994874;28;20415;-84
2022/02/09 14:13:46;;;;;;;22.27;12.13;;;12.00;77.30;;;;;;4815873;29;20055;-84
2022/02/09 14:56:24;;;;;;;23.98;15.43;;;11.40;78.80;;;;;;4957050;28;20044;-84
2022/02/09 14:58:58;;;;;;;25.75;14.65;;;11.40;78.90;;;;;;4955603;29;20062;-84
2022/02/09 15:01:42;;;;;;;26.42;15.23;;;11.30;79.00;;;;;;4956387;28;20062;-84
2022/02/09 15:06:54;;;;;;;23.42;14.75;;;11.20;79.10;;;;;;4957965;28;20098;-83
2022/02/09 15:20:39;;;;;;;29.02;15.18;;;11.10;79.30;;;;;;4991480;28;20403;-84
2022/02/09 15:22:54;;;;;;;23.05;14.13;;;11.10;79.40;;;;;;4993614;28;20046;-84
2022/02/09 15:25:22;;;;;;;24.90;15.43;;;11.10;79.40;;;;;;4996418;28;20050;-85
2022/02/09 15:27:57;;;;;;;26.05;15.70;;;11.10;79.50;;;;;;4996159;28;20434;-85
2022/02/09 15:30:26;;;;;;;23.80;14.90;;;11.00;79.50;;;;;;4995840;28;20042;-85
2022/02/09 15:32:55;;;;;;;24.38;15.93;;;11.00;79.60;;;;;;4995972;28;20046;-85
2022/02/09 15:40:46;;;;;;;26.52;15.70;;;10.90;79.80;;;;;;4997577;28;20055;-83
2022/02/09 15:43:55;;;;;;;22.40;15.05;;;10.90;79.80;;;;;;4995992;28;20492;-84
2022/02/09 15:57:36;;;;;;;25.95;15.20;;;10.80;80.10;;;;;;4995640;28;20046;-84
2022/02/09 16:05:47;;;;;;;25.60;15.70;;;10.70;80.20;;;;;;4954760;28;20046;-84
2022/02/09 16:11:13;;;;;;;25.20;15.40;;;10.70;80.30;;;;;;4953159;28;20048;-83
2022/02/09 16:19:34;;;;;;;24.42;14.73;;;10.60;80.40;;;;;;4897203;29;20063;-83
2022/02/09 16:24:31;;;;;;;24.98;15.95;;;10.60;80.50;;;;;;4897068;29;20578;-83
2022/02/09 16:36:23;;;;;;;28.63;16.27;;;10.60;80.60;;;;;;4893401;29;20052;-84
2022/02/09 16:46:19;;;;;;;24.85;16.45;;;10.50;80.70;;;;;;4930257;28;20572;-84
2022/02/09 16:49:00;;;;;;;23.60;15.15;;;10.50;80.80;;;;;;4930248;29;20043;-83
2022/02/09 16:51:34;;;;;;;26.17;15.57;;;10.50;80.80;;;;;;4930351;29;20051;-83
2022/02/09 16:54:09;;;;;;;27.15;16.60;;;10.40;80.90;;;;;;4974056;28;20133;-84
2022/02/09 17:21:33;;;;;;;25.92;15.90;;;10.20;81.10;;;;;;4858243;29;20069;-84
2022/02/09 17:24:02;;;;;;;27.60;17.50;;;10.20;81.10;;;;;;4858583;29;20052;-84
2022/02/09 17:26:31;;;;;;;29.25;17.23;;;10.20;81.20;;;;;;4858372;29;20049;-84
2022/02/09 17:29:01;;;;;;;27.45;18.10;;;10.10;81.20;;;;;;4857482;29;20439;-84
2022/02/09 17:53:29;;;;;;;28.35;17.40;;;9.90;81.40;;;;;;4854556;29;20045;-84
2022/02/09 17:56:21;;;;;;;26.73;16.98;;;9.90;81.30;;;;;;4941593;28;20129;-84
2022/02/09 17:58:51;;;;;;;25.63;17.17;;;9.80;81.40;;;;;;4990068;28;20054;-84
2022/02/09 18:01:20;;;;;;;27.38;17.90;;;9.80;81.40;;;;;;4993116;28;20050;-85
2022/02/09 18:03:52;;;;;;;26.90;18.02;;;9.70;81.40;;;;;;4992201;28;20073;-84
2022/02/09 18:06:28;;;;;;;24.98;16.02;;;9.70;81.50;;;;;;4992747;28;20050;-84
2022/02/09 18:09:12;;;;;;;27.08;17.63;;;9.70;81.50;;;;;;4991839;28;20061;-84
2022/02/09 18:45:00;;;;;;;28.40;19.77;;;9.10;81.90;;;;;;4912603;29;20556;-84
2022/02/09 18:47:57;;;;;;;28.95;20.67;;;9.10;82.00;;;;;;4912732;29;20539;-84
2022/02/09 19:04:21;;;;;;;28.35;19.20;;;8.90;82.30;;;;;;4992566;28;20133;-84
2022/02/09 19:17:30;;;;;;;29.15;20.52;;;8.90;82.60;;;;;;4996010;28;20423;-84
2022/02/09 19:30:57;;;;;;;35.65;22.30;;;8.70;82.80;;;;;;4916712;29;20048;-85
2022/02/09 19:43:22;;;;;;;34.75;21.90;;;8.70;82.90;;;;;;4916491;29;20635;-85
2022/02/09 19:47:27;;;;;;;35.53;24.02;;;8.70;82.90;;;;;;4913031;29;20047;-86
2022/02/09 19:57:56;;;;;;;33.38;22.30;;;8.60;83.00;;;;;;4915989;29;20544;-85
2022/02/09 20:00:26;;;;;;;34.67;22.35;;;8.50;83.00;;;;;;4915990;29;20051;-85
2022/02/09 20:02:54;;;;;;;31.98;21.95;;;8.60;83.00;;;;;;4916152;29;20336;-85
2022/02/09 20:05:22;;;;;;;33.70;22.27;;;8.50;83.00;;;;;;4915465;29;20053;-83
2022/02/09 20:07:51;;;;;;;32.92;22.55;;;8.50;83.00;;;;;;4951859;28;20073;-84
2022/02/09 20:10:19;;;;;;;30.80;21.83;;;8.50;83.00;;;;;;4994905;28;20058;-85
2022/02/09 20:12:46;;;;;;;34.63;23.63;;;8.50;83.10;;;;;;4993510;28;20046;-85
2022/02/09 20:15:13;;;;;;;34.55;23.67;;;8.40;83.10;;;;;;4994814;28;20499;-85
2022/02/09 20:17:41;;;;;;;34.45;23.73;;;8.40;83.10;;;;;;4995203;28;20053;-84
2022/02/09 20:20:12;;;;;;;30.23;21.88;;;8.40;83.10;;;;;;4992854;28;20503;-85
2022/02/09 20:22:39;;;;;;;32.95;21.80;;;8.40;83.10;;;;;;4994740;28;20418;-85
2022/02/09 20:25:08;;;;;;;30.17;21.15;;;8.40;83.10;;;;;;4994865;28;20050;-85
2022/02/09 20:27:37;;;;;;;32.83;21.58;;;8.30;83.10;;;;;;4994434;28;20049;-84
2022/02/09 20:30:09;;;;;;;35.50;22.58;;;8.30;83.10;;;;;;4993686;28;20435;-84
2022/02/09 20:32:42;;;;;;;32.83;21.80;;;8.30;83.10;;;;;;4993344;28;20050;-84
2022/02/09 20:35:12;;;;;;;34.03;22.47;;;8.30;83.20;;;;;;4989614;28;20050;-85
2022/02/09 20:37:46;;;;;;;30.50;21.65;;;8.30;83.20;;;;;;4994166;28;20076;-84
2022/02/09 20:40:21;;;;;;;30.77;22.23;;;8.30;83.20;;;;;;4994766;28;20053;-87
2022/02/09 20:42:58;;;;;;;31.67;21.88;;;8.20;83.20;;;;;;4994205;28;20044;-86
2022/02/09 20:48:01;;;;;;;31.27;22.48;;;8.20;83.20;;;;;;4994426;28;20057;-86
2022/02/09 20:50:29;;;;;;;33.45;23.45;;;8.10;83.20;;;;;;4994280;28;20062;-86
2022/02/09 20:52:56;;;;;;;32.88;22.33;;;8.10;83.20;;;;;;4992138;28;20072;-86
2022/02/09 20:55:23;;;;;;;35.67;22.52;;;8.10;83.30;;;;;;4994366;28;20050;-86
2022/02/09 20:57:51;;;;;;;34.47;22.30;;;8.10;83.30;;;;;;4993832;28;20056;-85
2022/02/09 21:00:31;;;;;;;37.50;22.92;;;8.00;83.30;;;;;;4994230;28;20050;-85
2022/02/09 21:03:28;;;;;;;35.30;23.35;;;8.00;83.30;;;;;;4993845;28;20058;-85
2022/02/09 21:11:18;;;;;;;30.77;21.92;;;8.00;83.40;;;;;;4989411;28;20054;-84
2022/02/09 21:16:39;;;;;;;31.38;23.23;;;8.00;83.50;;;;;;4993938;28;20053;-86
2022/02/09 21:22:26;;;;;;;33.35;22.88;;;7.90;83.50;;;;;;4993961;28;20081;-85
2022/02/09 21:44:54;;;;;;;33.75;21.85;;;7.80;83.50;;;;;;4994857;28;20061;-85
2022/02/09 21:56:56;;;;;;;32.97;22.90;;;7.70;83.40;;;;;;4993284;28;20043;-86
2022/02/09 21:59:57;;;;;;;31.67;21.33;;;7.70;83.40;;;;;;4993470;28;20051;-85
2022/02/09 22:26:41;;;;;;;30.10;21.27;;;7.40;83.10;;;;;;4992863;28;20050;-85
2022/02/09 22:31:51;;;;;;;27.15;20.02;;;7.30;83.00;;;;;;4993621;28;20049;-85
2022/02/09 22:45:53;;;;;;;27.98;20.27;;;7.20;83.00;;;;;;4996486;28;20049;-85
2022/02/09 22:48:34;;;;;;;29.15;20.17;;;7.20;83.00;;;;;;4996592;28;20054;-85
2022/02/09 22:56:32;;;;;;;25.08;18.45;;;7.00;82.90;;;;;;4996684;28;20434;-85
2022/02/09 22:59:01;;;;;;;28.10;17.95;;;7.00;82.80;;;;;;4994683;28;20060;-85
2022/02/09 23:01:41;;;;;;;26.25;19.10;;;7.00;82.80;;;;;;4996210;28;20042;-84
2022/02/09 23:07:05;;;;;;;27.58;19.23;;;7.00;82.80;;;;;;4996376;28;20057;-85
2022/02/09 23:18:36;;;;;;;24.98;18.35;;;6.90;82.70;;;;;;4923442;29;20060;-85
